createdAt,value
2019-05-21T00:00:30.156Z,14.30
2019-05-21T00:03:02.765Z,14.30
2019-05-21T00:05:36.053Z,14.10
2019-05-21T00:08:08.369Z,14.00
2019-05-21T00:10:40.597Z,14.00
2019-05-21T00:13:12.915Z,13.90
2019-05-21T00:15:45.248Z,13.90
2019-05-21T00:18:17.417Z,13.90
2019-05-21T00:20:49.919Z,14.00
2019-05-21T00:23:22.140Z,13.90
2019-05-21T00:25:54.420Z,13.90
2019-05-21T00:28:39.926Z,13.90
2019-05-21T00:32:06.665Z,13.90
2019-05-21T00:35:46.224Z,13.90
2019-05-21T00:39:13.321Z,13.80
2019-05-21T00:42:02.861Z,13.60
2019-05-21T00:44:40.638Z,13.50
2019-05-21T00:47:14.493Z,13.40
2019-05-21T00:49:46.724Z,13.50
2019-05-21T00:52:19.250Z,13.60
2019-05-21T00:54:51.511Z,13.50
2019-05-21T00:57:23.734Z,13.50
2019-05-21T00:59:56.367Z,13.50
2019-05-21T01:02:28.860Z,13.30
2019-05-21T01:05:01.729Z,13.50
2019-05-21T01:07:34.107Z,13.50
2019-05-21T01:10:07.166Z,13.40
2019-05-21T01:12:39.454Z,13.10
2019-05-21T01:15:12.069Z,13.10
2019-05-21T01:17:44.685Z,13.20
2019-05-21T01:20:17.049Z,13.30
2019-05-21T01:22:49.296Z,13.40
2019-05-21T01:25:21.693Z,13.40
2019-05-21T01:27:54.519Z,13.30
2019-05-21T01:30:26.782Z,13.10
2019-05-21T01:32:59.548Z,13.20
2019-05-21T01:35:31.714Z,13.10
2019-05-21T01:38:04.055Z,13.30
2019-05-21T01:40:36.257Z,13.30
2019-05-21T01:43:08.453Z,13.30
2019-05-21T01:45:40.730Z,13.40
2019-05-21T01:48:13.093Z,13.40
2019-05-21T01:50:45.604Z,13.40
2019-05-21T01:53:17.798Z,13.50
2019-05-21T01:55:50.055Z,13.20
2019-05-21T01:58:22.276Z,13.20
2019-05-21T02:00:54.888Z,13.20
2019-05-21T02:03:27.162Z,13.30
2019-05-21T02:05:59.387Z,13.30
2019-05-21T02:08:31.597Z,13.20
2019-05-21T02:11:03.869Z,13.20
2019-05-21T02:13:36.087Z,13.00
2019-05-21T02:16:09.492Z,13.00
2019-05-21T02:18:41.829Z,13.10
2019-05-21T02:21:14.266Z,13.10
2019-05-21T02:23:46.561Z,13.10
2019-05-21T02:26:18.740Z,13.10
2019-05-21T02:28:51.405Z,13.10
2019-05-21T02:31:24.065Z,13.00
2019-05-21T02:33:56.579Z,12.80
2019-05-21T02:36:28.966Z,12.70
2019-05-21T02:39:02.263Z,12.70
2019-05-21T02:41:36.545Z,12.80
2019-05-21T02:44:09.241Z,12.90
2019-05-21T02:46:41.554Z,12.90
2019-05-21T02:49:13.824Z,13.00
2019-05-21T02:51:46.634Z,13.00
2019-05-21T02:54:18.820Z,13.00
2019-05-21T02:56:51.099Z,13.00
2019-05-21T02:59:23.764Z,12.90
2019-05-21T03:02:02.009Z,12.90
2019-05-21T03:04:34.274Z,12.90
2019-05-21T03:07:18.798Z,12.90
2019-05-21T03:09:51.573Z,13.00
2019-05-21T03:12:23.939Z,13.00
2019-05-21T03:14:56.681Z,13.00
2019-05-21T03:17:29.153Z,13.00
2019-05-21T03:20:01.398Z,13.00
2019-05-21T03:22:34.036Z,13.00
2019-05-21T03:25:06.839Z,13.00
2019-05-21T03:27:39.055Z,13.00
2019-05-21T03:30:12.171Z,13.00
2019-05-21T03:32:44.533Z,13.00
2019-05-21T03:35:17.271Z,13.00
2019-05-21T03:37:50.558Z,13.00
2019-05-21T03:40:22.782Z,13.00
2019-05-21T03:42:55.034Z,13.00
2019-05-21T03:45:27.607Z,13.00
2019-05-21T03:48:00.950Z,13.10
2019-05-21T03:50:33.849Z,13.20
2019-05-21T03:53:06.759Z,13.20
2019-05-21T03:55:38.980Z,13.20
2019-05-21T03:58:12.622Z,13.30
2019-05-21T04:00:46.368Z,13.20
2019-05-21T04:03:18.566Z,13.10
2019-05-21T04:05:50.878Z,13.20
2019-05-21T04:08:23.023Z,13.20
2019-05-21T04:10:55.568Z,13.30
2019-05-21T04:13:27.864Z,13.30
2019-05-21T04:16:25.196Z,13.20
2019-05-21T04:19:02.289Z,13.30
2019-05-21T04:21:34.613Z,13.30
2019-05-21T04:24:08.903Z,13.40
2019-05-21T04:26:40.913Z,13.50
2019-05-21T04:29:13.453Z,13.40
2019-05-21T04:31:45.690Z,13.40
2019-05-21T04:34:17.939Z,13.30
2019-05-21T04:36:50.185Z,13.40
2019-05-21T04:39:22.408Z,13.40
2019-05-21T04:41:54.601Z,13.50
2019-05-21T04:44:26.805Z,13.50
2019-05-21T04:46:58.996Z,13.70
2019-05-21T04:49:31.190Z,13.70
2019-05-21T04:52:03.610Z,13.70
2019-05-21T04:54:36.358Z,13.70
2019-05-21T04:57:08.528Z,13.70
2019-05-21T04:59:40.971Z,13.80
2019-05-21T05:02:13.265Z,13.90
2019-05-21T05:04:45.740Z,13.90
2019-05-21T05:07:27.549Z,13.90
2019-05-21T05:09:52.456Z,14.00
2019-05-21T05:12:24.715Z,14.10
2019-05-21T05:14:57.955Z,14.20
2019-05-21T05:17:30.333Z,14.30
2019-05-21T05:20:02.617Z,14.40
2019-05-21T05:22:35.725Z,14.40
2019-05-21T05:25:08.165Z,14.40
2019-05-21T05:27:40.444Z,14.30
2019-05-21T05:30:13.059Z,14.30
2019-05-21T05:32:45.318Z,14.30
2019-05-21T05:35:17.915Z,14.40
2019-05-21T05:37:50.199Z,14.50
2019-05-21T05:40:22.886Z,14.50
2019-05-21T05:42:55.079Z,14.50
2019-05-21T05:45:28.359Z,14.60
2019-05-21T05:48:00.727Z,14.70
2019-05-21T05:50:36.430Z,14.70
2019-05-21T05:53:08.709Z,14.90
2019-05-21T05:55:40.937Z,15.00
2019-05-21T05:58:13.098Z,14.90
2019-05-21T06:00:45.572Z,15.00
2019-05-21T06:03:17.899Z,15.10
2019-05-21T06:05:50.113Z,15.20
2019-05-21T06:08:22.326Z,15.50
2019-05-21T06:10:54.572Z,15.60
2019-05-21T06:13:26.788Z,15.70
2019-05-21T06:15:59.217Z,15.80
2019-05-21T06:18:35.272Z,15.80
2019-05-21T06:21:05.537Z,15.90
2019-05-21T06:23:37.718Z,16.10
2019-05-21T06:26:10.306Z,16.30
2019-05-21T06:28:42.549Z,16.30
2019-05-21T06:31:14.841Z,16.30
2019-05-21T06:33:46.969Z,16.30
2019-05-21T06:36:19.115Z,16.50
2019-05-21T06:38:51.379Z,16.60
2019-05-21T06:41:23.545Z,16.70
2019-05-21T06:43:55.895Z,16.90
2019-05-21T06:46:28.023Z,17.00
2019-05-21T06:49:01.345Z,17.30
2019-05-21T06:51:33.490Z,17.30
2019-05-21T06:54:05.732Z,17.30
2019-05-21T06:56:38.212Z,17.40
2019-05-21T06:59:11.097Z,17.50
2019-05-21T07:01:43.314Z,17.60
2019-05-21T07:04:15.754Z,17.60
2019-05-21T07:06:48.529Z,17.90
2019-05-21T07:09:20.730Z,18.40
2019-05-21T07:11:52.975Z,18.50
2019-05-21T07:14:25.154Z,18.50
2019-05-21T07:16:57.294Z,18.90
2019-05-21T07:19:29.977Z,18.90
2019-05-21T07:22:12.228Z,19.40
2019-05-21T07:24:36.239Z,19.20
2019-05-21T07:27:08.398Z,19.10
2019-05-21T07:29:40.543Z,19.10
2019-05-21T07:32:13.250Z,19.20
2019-05-21T07:34:45.662Z,19.20
2019-05-21T07:37:18.129Z,19.30
2019-05-21T07:39:50.464Z,19.30
2019-05-21T07:42:22.665Z,19.30
2019-05-21T07:44:55.339Z,19.20
2019-05-21T07:47:27.446Z,19.30
2019-05-21T07:49:59.760Z,19.50
2019-05-21T07:52:31.930Z,19.60
2019-05-21T07:55:04.281Z,19.80
2019-05-21T07:57:36.559Z,19.80
2019-05-21T08:00:09.817Z,20.00
2019-05-21T08:02:42.248Z,20.10
2019-05-21T08:05:14.656Z,20.20
2019-05-21T08:07:47.209Z,20.50
2019-05-21T08:10:19.492Z,20.70
2019-05-21T08:12:51.656Z,20.70
2019-05-21T08:15:23.867Z,20.30
2019-05-21T08:17:56.105Z,20.10
2019-05-21T08:20:28.857Z,20.10
2019-05-21T08:23:01.042Z,20.50
2019-05-21T08:25:33.704Z,20.50
2019-05-21T08:28:05.981Z,20.90
2019-05-21T08:30:38.283Z,20.80
2019-05-21T08:33:10.829Z,20.80
2019-05-21T08:35:43.125Z,20.80
2019-05-21T08:38:15.431Z,21.10
2019-05-21T08:40:47.736Z,21.50
2019-05-21T08:43:22.068Z,21.40
2019-05-21T08:45:54.186Z,21.20
2019-05-21T08:48:26.458Z,20.40
2019-05-21T08:50:58.769Z,20.60
2019-05-21T08:53:31.292Z,20.50
2019-05-21T08:56:03.540Z,21.10
2019-05-21T08:58:36.985Z,21.70
2019-05-21T09:01:09.622Z,22.40
2019-05-21T09:03:41.934Z,22.70
2019-05-21T09:06:14.171Z,23.30
2019-05-21T09:08:46.464Z,23.90
2019-05-21T09:11:18.659Z,23.40
2019-05-21T09:13:51.004Z,23.70
2019-05-21T09:16:23.184Z,23.00
2019-05-21T09:18:55.611Z,23.60
2019-05-21T09:21:27.786Z,23.40
2019-05-21T09:24:00.310Z,24.10
2019-05-21T09:26:33.093Z,23.80
2019-05-21T09:29:05.465Z,23.90
2019-05-21T09:31:37.594Z,24.30
2019-05-21T09:34:09.801Z,24.20
2019-05-21T09:36:42.064Z,23.90
2019-05-21T09:39:14.295Z,24.10
2019-05-21T09:41:47.303Z,24.30
2019-05-21T09:44:19.725Z,24.90
2019-05-21T09:46:52.222Z,25.10
2019-05-21T09:49:24.381Z,25.30
2019-05-21T09:51:56.814Z,25.10
2019-05-21T09:54:29.021Z,25.30
2019-05-21T09:57:02.522Z,25.30
2019-05-21T09:59:43.315Z,25.50
2019-05-21T10:02:19.250Z,25.90
2019-05-21T10:04:52.211Z,26.00
2019-05-21T10:07:39.144Z,25.90
2019-05-21T10:09:58.496Z,25.20
2019-05-21T10:12:30.737Z,25.70
2019-05-21T10:15:02.950Z,25.90
2019-05-21T10:17:35.125Z,26.00
2019-05-21T10:20:08.568Z,26.50
2019-05-21T10:22:40.862Z,26.10
2019-05-21T10:25:15.874Z,25.40
2019-05-21T10:27:47.284Z,26.30
2019-05-21T10:30:19.658Z,27.10
2019-05-21T10:32:51.791Z,26.50
2019-05-21T10:35:24.072Z,26.90
2019-05-21T10:37:56.660Z,25.90
2019-05-21T10:40:29.135Z,25.30
2019-05-21T10:43:01.883Z,25.70
2019-05-21T10:45:34.078Z,25.30
2019-05-21T10:48:06.543Z,25.60
2019-05-21T10:50:39.222Z,25.60
2019-05-21T10:53:11.428Z,25.30
2019-05-21T10:55:43.770Z,24.90
2019-05-21T10:58:16.123Z,25.20
2019-05-21T11:00:50.104Z,25.50
2019-05-21T11:03:35.190Z,25.90
2019-05-21T11:06:10.421Z,26.00
2019-05-21T11:08:42.542Z,26.30
2019-05-21T11:11:15.045Z,26.40
2019-05-21T11:13:47.297Z,26.90
2019-05-21T11:16:19.538Z,27.30
2019-05-21T11:18:52.584Z,27.30
2019-05-21T11:21:24.764Z,27.90
2019-05-21T11:23:57.164Z,28.00
2019-05-21T11:26:29.483Z,27.30
2019-05-21T11:29:02.162Z,27.30
2019-05-21T11:31:34.546Z,27.70
2019-05-21T11:34:06.855Z,26.90
2019-05-21T11:36:39.175Z,27.20
2019-05-21T11:39:11.612Z,27.00
2019-05-21T11:41:43.849Z,26.90
2019-05-21T11:44:16.078Z,27.00
2019-05-21T11:46:48.368Z,27.00
2019-05-21T11:49:20.518Z,26.50
2019-05-21T11:51:53.353Z,26.80
2019-05-21T11:54:25.775Z,26.70
2019-05-21T11:56:58.059Z,27.00
2019-05-21T11:59:30.970Z,26.90
2019-05-21T12:02:03.260Z,27.10
2019-05-21T12:04:35.649Z,27.20
2019-05-21T12:07:07.952Z,27.30
2019-05-21T12:09:40.240Z,27.00
2019-05-21T12:12:12.803Z,26.10
2019-05-21T12:14:45.279Z,26.70
2019-05-21T12:17:17.515Z,27.00
2019-05-21T12:19:50.926Z,27.40
2019-05-21T12:22:23.654Z,27.30
2019-05-21T12:24:55.791Z,27.00
2019-05-21T12:27:28.063Z,26.60
2019-05-21T12:30:00.461Z,26.20
2019-05-21T12:32:32.721Z,25.40
2019-05-21T12:35:05.046Z,25.30
2019-05-21T12:37:37.680Z,26.20
2019-05-21T12:40:11.057Z,27.10
2019-05-21T12:42:43.514Z,27.40
2019-05-21T12:45:16.193Z,27.10
2019-05-21T12:47:50.742Z,27.30
2019-05-21T12:50:23.343Z,26.80
2019-05-21T12:52:55.830Z,27.10
2019-05-21T12:55:28.720Z,27.40
2019-05-21T12:58:00.952Z,27.40
2019-05-21T13:00:35.722Z,27.60
2019-05-21T13:03:07.992Z,27.40
2019-05-21T13:05:40.328Z,26.90
2019-05-21T13:08:12.480Z,26.60
2019-05-21T13:10:45.358Z,26.00
2019-05-21T13:13:17.604Z,26.10
2019-05-21T13:15:49.901Z,26.20
2019-05-21T13:18:22.518Z,26.20
2019-05-21T13:20:54.973Z,26.00
2019-05-21T13:23:27.197Z,25.90
2019-05-21T13:25:59.401Z,26.00
2019-05-21T13:28:31.634Z,26.00
2019-05-21T13:31:03.748Z,26.10
2019-05-21T13:33:37.624Z,26.10
2019-05-21T13:36:12.486Z,26.20
2019-05-21T13:38:45.111Z,26.00
2019-05-21T13:41:17.352Z,26.20
2019-05-21T13:43:49.733Z,26.10
2019-05-21T13:46:22.179Z,25.80
2019-05-21T13:48:54.582Z,25.40
2019-05-21T13:51:26.738Z,25.50
2019-05-21T13:53:58.953Z,25.90
2019-05-21T13:56:31.138Z,26.10
2019-05-21T13:59:04.186Z,25.70
2019-05-21T14:01:41.109Z,25.60
2019-05-21T14:04:12.718Z,25.60
2019-05-21T14:06:45.054Z,25.50
2019-05-21T14:09:17.686Z,25.30
2019-05-21T14:11:50.179Z,25.30
2019-05-21T14:14:22.659Z,25.10
2019-05-21T14:16:54.876Z,25.10
2019-05-21T14:19:27.103Z,25.00
2019-05-21T14:21:59.275Z,25.10
2019-05-21T14:24:31.491Z,24.90
2019-05-21T14:27:04.818Z,24.90
2019-05-21T14:29:37.099Z,24.80
2019-05-21T14:32:09.233Z,24.90
2019-05-21T14:34:41.766Z,24.70
2019-05-21T14:37:13.964Z,24.60
2019-05-21T14:39:46.238Z,24.60
2019-05-21T14:42:18.467Z,24.40
2019-05-21T14:44:50.967Z,24.10
2019-05-21T14:47:23.324Z,24.20
2019-05-21T14:49:56.524Z,24.20
2019-05-21T14:52:28.963Z,24.00
2019-05-21T14:55:01.446Z,23.60
2019-05-21T14:57:33.888Z,23.70
2019-05-21T15:00:15.925Z,23.80
2019-05-21T15:02:48.459Z,23.80
2019-05-21T15:05:21.463Z,23.80
2019-05-21T15:07:53.759Z,23.90
2019-05-21T15:10:26.080Z,23.80
2019-05-21T15:12:58.511Z,23.70
2019-05-21T15:15:31.184Z,23.80
2019-05-21T15:18:03.447Z,23.60
2019-05-21T15:20:45.581Z,23.50
2019-05-21T15:23:18.209Z,23.50
2019-05-21T15:25:50.657Z,23.60
2019-05-21T15:28:22.962Z,23.60
2019-05-21T15:30:55.245Z,23.50
2019-05-21T15:33:27.857Z,23.50
2019-05-21T15:36:00.291Z,23.40
2019-05-21T15:38:48.787Z,23.50
2019-05-21T15:41:11.940Z,23.40
2019-05-21T15:43:40.341Z,23.30
2019-05-21T15:46:12.579Z,23.20
2019-05-21T15:48:45.646Z,23.40
2019-05-21T15:51:17.961Z,23.30
2019-05-21T15:53:50.337Z,23.10
2019-05-21T15:56:22.507Z,22.90
2019-05-21T15:58:55.075Z,22.80
2019-05-21T16:01:27.259Z,22.80
2019-05-21T16:03:59.650Z,22.70
2019-05-21T16:06:31.933Z,22.50
2019-05-21T16:09:06.574Z,22.30
2019-05-21T16:11:38.849Z,22.20
2019-05-21T16:14:11.076Z,22.00
2019-05-21T16:16:43.293Z,21.90
2019-05-21T16:19:15.478Z,21.80
2019-05-21T16:21:47.630Z,21.80
2019-05-21T16:24:20.693Z,21.70
2019-05-21T16:26:52.910Z,21.70
2019-05-21T16:29:25.125Z,21.80
2019-05-21T16:31:58.890Z,21.60
2019-05-21T16:34:32.025Z,21.50
2019-05-21T16:37:04.911Z,21.40
2019-05-21T16:39:37.322Z,21.40
2019-05-21T16:42:09.608Z,21.40
2019-05-21T16:44:41.869Z,21.30
2019-05-21T16:47:14.797Z,21.30
2019-05-21T16:49:47.067Z,21.40
2019-05-21T16:52:19.757Z,21.50
2019-05-21T16:54:52.330Z,21.50
2019-05-21T16:57:24.628Z,21.60
2019-05-21T16:59:56.947Z,21.50
2019-05-21T17:02:29.343Z,21.50
2019-05-21T17:05:01.595Z,21.40
2019-05-21T17:07:33.832Z,21.40
2019-05-21T17:10:07.615Z,21.40
2019-05-21T17:12:39.906Z,21.30
2019-05-21T17:15:14.286Z,21.30
2019-05-21T17:17:46.529Z,21.30
2019-05-21T17:20:21.694Z,21.30
2019-05-21T17:22:53.108Z,21.30
2019-05-21T17:25:25.369Z,21.30
2019-05-21T17:27:58.185Z,21.20
2019-05-21T17:30:30.573Z,21.20
2019-05-21T17:33:03.122Z,21.00
2019-05-21T17:35:35.424Z,20.90
2019-05-21T17:38:11.047Z,20.90
2019-05-21T17:40:43.726Z,20.90
2019-05-21T17:43:16.947Z,20.80
2019-05-21T17:45:49.505Z,20.80
2019-05-21T17:48:22.001Z,20.80
2019-05-21T17:50:55.831Z,20.90
2019-05-21T17:53:30.106Z,20.90
2019-05-21T17:56:02.705Z,20.80
2019-05-21T17:58:35.210Z,20.80
2019-05-21T18:01:09.787Z,20.80
2019-05-21T18:03:42.316Z,20.60
2019-05-21T18:06:16.563Z,20.60
2019-05-21T18:08:49.179Z,20.40
2019-05-21T18:11:22.267Z,20.40
2019-05-21T18:13:55.202Z,20.40
2019-05-21T18:16:27.670Z,20.30
2019-05-21T18:19:00.731Z,20.40
2019-05-21T18:21:35.708Z,20.30
2019-05-21T18:24:08.573Z,20.20
2019-05-21T18:26:43.479Z,20.20
2019-05-21T18:29:15.948Z,20.30
2019-05-21T18:31:48.417Z,20.30
2019-05-21T18:34:21.094Z,20.20
2019-05-21T18:36:53.695Z,20.20
2019-05-21T18:39:26.590Z,20.20
2019-05-21T18:41:58.999Z,20.20
2019-05-21T18:44:37.540Z,20.10
2019-05-21T18:47:11.272Z,19.90
2019-05-21T18:49:44.473Z,19.90
2019-05-21T18:52:17.310Z,20.00
2019-05-21T18:54:49.729Z,20.10
2019-05-21T18:57:23.312Z,20.10
2019-05-21T18:59:55.652Z,20.10
2019-05-21T19:02:28.091Z,20.20
2019-05-21T19:05:00.216Z,20.10
2019-05-21T19:07:32.631Z,20.20
2019-05-21T19:10:06.167Z,20.10
2019-05-21T19:12:39.423Z,19.90
2019-05-21T19:15:12.249Z,19.80
2019-05-21T19:17:45.245Z,19.70
2019-05-21T19:20:17.931Z,19.60
2019-05-21T19:22:50.397Z,19.30
2019-05-21T19:25:22.665Z,19.20
2019-05-21T19:27:55.336Z,19.00
2019-05-21T19:30:28.671Z,19.20
2019-05-21T19:33:01.001Z,19.10
2019-05-21T19:35:34.570Z,19.00
2019-05-21T19:38:06.855Z,19.10
2019-05-21T19:40:39.141Z,19.00
2019-05-21T19:43:12.149Z,18.60
2019-05-21T19:45:44.562Z,17.70
2019-05-21T19:48:16.835Z,17.60
2019-05-21T19:50:49.812Z,17.60
2019-05-21T19:53:22.795Z,17.50
2019-05-21T19:55:56.154Z,17.50
2019-05-21T19:58:29.681Z,17.50
2019-05-21T20:01:02.198Z,17.40
2019-05-21T20:03:34.969Z,17.10
2019-05-21T20:06:09.907Z,17.00
2019-05-21T20:08:42.413Z,16.90
2019-05-21T20:11:16.068Z,16.80
2019-05-21T20:13:48.615Z,16.70
2019-05-21T20:16:22.332Z,16.30
2019-05-21T20:18:54.849Z,16.10
2019-05-21T20:21:27.940Z,15.90
2019-05-21T20:24:00.774Z,15.70
2019-05-21T20:26:37.505Z,15.80
2019-05-21T20:29:10.391Z,16.00
2019-05-21T20:31:46.827Z,16.20
2019-05-21T20:34:20.073Z,16.30
2019-05-21T20:36:54.471Z,16.30
2019-05-21T20:39:27.067Z,16.40
2019-05-21T20:41:59.960Z,16.40
2019-05-21T20:44:32.354Z,16.50
2019-05-21T20:47:09.041Z,16.50
2019-05-21T20:49:44.221Z,16.50
2019-05-21T20:52:18.880Z,16.40
2019-05-21T20:54:53.810Z,16.20
2019-05-21T20:57:27.391Z,16.20
2019-05-21T20:59:59.711Z,16.10
2019-05-21T21:02:32.621Z,16.00
2019-05-21T21:05:06.608Z,16.10
2019-05-21T21:07:39.771Z,16.00
2019-05-21T21:10:12.790Z,16.00
2019-05-21T21:12:45.909Z,16.00
2019-05-21T21:15:18.718Z,16.00
2019-05-21T21:17:51.132Z,16.00
2019-05-21T21:20:23.700Z,16.00
2019-05-21T21:22:56.681Z,15.90
2019-05-21T21:25:30.483Z,16.00
2019-05-21T21:28:03.516Z,15.90
2019-05-21T21:30:36.537Z,15.80
2019-05-21T21:33:10.569Z,15.80
2019-05-21T21:35:43.632Z,15.80
2019-05-21T21:38:17.841Z,15.80
2019-05-21T21:40:50.422Z,15.80
2019-05-21T21:43:23.167Z,15.80
2019-05-21T21:45:55.468Z,15.80
2019-05-21T21:48:27.740Z,15.70
2019-05-21T21:50:59.947Z,15.70
2019-05-21T21:53:32.366Z,15.70
2019-05-21T21:56:05.050Z,15.80
2019-05-21T21:58:37.394Z,15.80
2019-05-21T22:01:39.668Z,15.80
2019-05-21T22:04:14.550Z,15.80
2019-05-21T22:06:49.975Z,15.80
2019-05-21T22:09:40.486Z,15.80
2019-05-21T22:12:17.769Z,15.80
2019-05-21T22:15:00.935Z,15.80
2019-05-21T22:17:33.642Z,15.80
2019-05-21T22:20:07.668Z,15.80
2019-05-21T22:22:39.954Z,15.80
2019-05-21T22:25:12.326Z,15.80
2019-05-21T22:27:44.687Z,15.80
2019-05-21T22:30:18.728Z,15.90
2019-05-21T22:32:52.448Z,15.80
2019-05-21T22:35:25.517Z,15.90
2019-05-21T22:37:57.959Z,15.80
2019-05-21T22:40:30.458Z,15.80
2019-05-21T22:43:02.743Z,15.80
2019-05-21T22:45:35.184Z,15.80
2019-05-21T22:48:07.692Z,15.80
2019-05-21T22:50:40.122Z,15.80
2019-05-21T22:53:12.396Z,15.90
2019-05-21T22:55:44.652Z,15.80
2019-05-21T22:58:17.442Z,15.80
2019-05-21T23:00:50.438Z,15.80
2019-05-21T23:03:22.869Z,15.90
2019-05-21T23:05:55.301Z,15.90
2019-05-21T23:08:28.389Z,15.90
2019-05-21T23:11:01.059Z,15.90
2019-05-21T23:13:33.717Z,15.90
2019-05-21T23:16:06.599Z,15.90
2019-05-21T23:18:43.778Z,15.90
2019-05-21T23:21:19.441Z,15.80
2019-05-21T23:23:54.073Z,15.80
2019-05-21T23:26:26.301Z,15.80
2019-05-21T23:29:01.600Z,15.80
2019-05-21T23:31:34.050Z,15.80
2019-05-21T23:34:07.325Z,15.80
2019-05-21T23:36:41.660Z,15.80
2019-05-21T23:39:17.720Z,15.80
2019-05-21T23:41:50.583Z,15.80
2019-05-21T23:44:23.687Z,15.80
2019-05-21T23:46:55.964Z,15.90
2019-05-21T23:49:29.358Z,15.80
2019-05-21T23:52:02.071Z,15.90
2019-05-21T23:54:34.273Z,15.90
2019-05-21T23:57:07.648Z,15.90
2019-05-21T23:59:40.366Z,15.90
